sensor_id;sensor_type;location;lat;lon;timestamp;P1;durP1;ratioP1;P2;durP2;ratioP2
47155;SDS011;32908;52.344;16.858;2022-11-18T00:01:06;40.20;;;20.07;;
47155;SDS011;32908;52.344;16.858;2022-11-18T00:03:35;38.20;;;21.10;;
47155;SDS011;32908;52.344;16.858;2022-11-18T00:06:05;38.97;;;20.67;;
47155;SDS011;32908;52.344;16.858;2022-11-18T00:08:33;39.07;;;20.23;;
47155;SDS011;32908;52.344;16.858;2022-11-18T00:11:04;35.47;;;19.97;;
47155;SDS011;32908;52.344;16.858;2022-11-18T00:13:33;41.43;;;21.13;;
47155;SDS011;32908;52.344;16.858;2022-11-18T00:16:19;40.27;;;19.37;;
47155;SDS011;32908;52.344;16.858;2022-11-18T00:18:47;37.03;;;19.83;;
47155;SDS011;32908;52.344;16.858;2022-11-18T00:21:16;36.57;;;19.80;;
47155;SDS011;32908;52.344;16.858;2022-11-18T00:23:47;31.30;;;18.00;;
47155;SDS011;32908;52.344;16.858;2022-11-18T00:26:15;31.27;;;18.07;;
47155;SDS011;32908;52.344;16.858;2022-11-18T00:28:44;34.33;;;18.93;;
47155;SDS011;32908;52.344;16.858;2022-11-18T00:31:12;30.43;;;17.40;;
47155;SDS011;32908;52.344;16.858;2022-11-18T00:33:41;31.40;;;18.20;;
47155;SDS011;32908;52.344;16.858;2022-11-18T00:36:10;30.77;;;17.90;;
47155;SDS011;32908;52.344;16.858;2022-11-18T00:38:38;27.07;;;17.50;;
47155;SDS011;32908;52.344;16.858;2022-11-18T00:41:08;28.17;;;16.93;;
47155;SDS011;32908;52.344;16.858;2022-11-18T00:43:37;29.73;;;17.73;;
47155;SDS011;32908;52.344;16.858;2022-11-18T00:46:07;27.17;;;17.33;;
47155;SDS011;32908;52.344;16.858;2022-11-18T00:48:37;28.37;;;17.03;;
47155;SDS011;32908;52.344;16.858;2022-11-18T00:51:06;26.60;;;16.60;;
47155;SDS011;32908;52.344;16.858;2022-11-18T00:53:36;26.77;;;17.90;;
47155;SDS011;32908;52.344;16.858;2022-11-18T00:56:04;25.57;;;16.30;;
47155;SDS011;32908;52.344;16.858;2022-11-18T00:58:33;25.83;;;16.87;;
47155;SDS011;32908;52.344;16.858;2022-11-18T01:01:02;26.57;;;16.57;;
47155;SDS011;32908;52.344;16.858;2022-11-18T01:03:30;26.67;;;16.93;;
47155;SDS011;32908;52.344;16.858;2022-11-18T01:05:59;27.10;;;16.27;;
47155;SDS011;32908;52.344;16.858;2022-11-18T01:08:28;28.90;;;17.50;;
47155;SDS011;32908;52.344;16.858;2022-11-18T01:10:57;28.17;;;17.37;;
47155;SDS011;32908;52.344;16.858;2022-11-18T01:13:45;27.07;;;16.97;;
47155;SDS011;32908;52.344;16.858;2022-11-18T01:16:18;27.93;;;16.70;;
47155;SDS011;32908;52.344;16.858;2022-11-18T01:18:47;26.10;;;16.43;;
47155;SDS011;32908;52.344;16.858;2022-11-18T01:21:15;25.00;;;16.37;;
47155;SDS011;32908;52.344;16.858;2022-11-18T01:23:44;26.40;;;17.30;;
47155;SDS011;32908;52.344;16.858;2022-11-18T01:26:13;24.00;;;16.65;;
47155;SDS011;32908;52.344;16.858;2022-11-18T01:28:43;22.67;;;15.57;;
47155;SDS011;32908;52.344;16.858;2022-11-18T01:31:11;24.80;;;15.97;;
47155;SDS011;32908;52.344;16.858;2022-11-18T01:33:41;26.23;;;16.47;;
47155;SDS011;32908;52.344;16.858;2022-11-18T01:36:17;24.73;;;17.10;;
47155;SDS011;32908;52.344;16.858;2022-11-18T01:41:15;25.77;;;17.77;;
47155;SDS011;32908;52.344;16.858;2022-11-18T01:43:49;26.00;;;17.23;;
47155;SDS011;32908;52.344;16.858;2022-11-18T01:46:19;25.87;;;17.00;;
47155;SDS011;32908;52.344;16.858;2022-11-18T01:48:51;27.23;;;17.63;;
47155;SDS011;32908;52.344;16.858;2022-11-18T01:51:25;25.20;;;16.27;;
47155;SDS011;32908;52.344;16.858;2022-11-18T01:53:56;25.70;;;17.10;;
47155;SDS011;32908;52.344;16.858;2022-11-18T01:56:27;27.63;;;17.70;;
47155;SDS011;32908;52.344;16.858;2022-11-18T01:59:00;27.20;;;17.70;;
47155;SDS011;32908;52.344;16.858;2022-11-18T02:01:30;26.10;;;17.95;;
47155;SDS011;32908;52.344;16.858;2022-11-18T02:03:58;29.83;;;18.37;;
47155;SDS011;32908;52.344;16.858;2022-11-18T02:06:28;28.63;;;18.67;;
47155;SDS011;32908;52.344;16.858;2022-11-18T02:08:56;26.27;;;17.63;;
47155;SDS011;32908;52.344;16.858;2022-11-18T02:11:24;28.47;;;18.23;;
47155;SDS011;32908;52.344;16.858;2022-11-18T02:14:11;28.57;;;19.13;;
47155;SDS011;32908;52.344;16.858;2022-11-18T02:16:43;25.20;;;18.10;;
47155;SDS011;32908;52.344;16.858;2022-11-18T02:19:24;26.67;;;17.90;;
47155;SDS011;32908;52.344;16.858;2022-11-18T02:22:18;28.10;;;17.83;;
47155;SDS011;32908;52.344;16.858;2022-11-18T02:24:59;27.00;;;18.23;;
47155;SDS011;32908;52.344;16.858;2022-11-18T02:27:39;27.53;;;17.90;;
47155;SDS011;32908;52.344;16.858;2022-11-18T02:30:26;24.37;;;17.03;;
47155;SDS011;32908;52.344;16.858;2022-11-18T02:32:56;26.37;;;16.63;;
47155;SDS011;32908;52.344;16.858;2022-11-18T02:35:29;28.50;;;17.27;;
47155;SDS011;32908;52.344;16.858;2022-11-18T02:38:00;23.20;;;16.17;;
47155;SDS011;32908;52.344;16.858;2022-11-18T02:40:32;24.13;;;16.40;;
47155;SDS011;32908;52.344;16.858;2022-11-18T02:43:03;22.90;;;16.07;;
47155;SDS011;32908;52.344;16.858;2022-11-18T02:45:33;24.90;;;16.25;;
47155;SDS011;32908;52.344;16.858;2022-11-18T02:48:03;23.70;;;15.80;;
47155;SDS011;32908;52.344;16.858;2022-11-18T02:50:34;23.70;;;16.13;;
47155;SDS011;32908;52.344;16.858;2022-11-18T02:53:04;23.03;;;15.47;;
47155;SDS011;32908;52.344;16.858;2022-11-18T02:55:34;21.00;;;14.33;;
47155;SDS011;32908;52.344;16.858;2022-11-18T02:58:03;24.33;;;15.40;;
47155;SDS011;32908;52.344;16.858;2022-11-18T03:00:32;24.27;;;16.40;;
47155;SDS011;32908;52.344;16.858;2022-11-18T03:03:12;23.97;;;15.73;;
47155;SDS011;32908;52.344;16.858;2022-11-18T03:05:51;22.97;;;15.93;;
47155;SDS011;32908;52.344;16.858;2022-11-18T03:08:23;24.83;;;15.53;;
47155;SDS011;32908;52.344;16.858;2022-11-18T03:10:53;24.47;;;16.40;;
47155;SDS011;32908;52.344;16.858;2022-11-18T03:13:27;25.30;;;16.40;;
47155;SDS011;32908;52.344;16.858;2022-11-18T03:16:01;22.70;;;15.30;;
47155;SDS011;32908;52.344;16.858;2022-11-18T03:18:32;25.27;;;16.10;;
47155;SDS011;32908;52.344;16.858;2022-11-18T03:21:07;27.45;;;17.55;;
47155;SDS011;32908;52.344;16.858;2022-11-18T03:23:37;23.97;;;15.97;;
47155;SDS011;32908;52.344;16.858;2022-11-18T03:26:08;26.70;;;16.50;;
47155;SDS011;32908;52.344;16.858;2022-11-18T03:28:40;23.10;;;15.05;;
47155;SDS011;32908;52.344;16.858;2022-11-18T03:31:11;26.37;;;16.10;;
47155;SDS011;32908;52.344;16.858;2022-11-18T03:33:42;24.27;;;16.37;;
47155;SDS011;32908;52.344;16.858;2022-11-18T03:36:14;27.57;;;17.43;;
47155;SDS011;32908;52.344;16.858;2022-11-18T03:38:44;32.60;;;17.87;;
47155;SDS011;32908;52.344;16.858;2022-11-18T03:41:18;28.03;;;17.83;;
47155;SDS011;32908;52.344;16.858;2022-11-18T03:43:48;32.20;;;19.37;;
47155;SDS011;32908;52.344;16.858;2022-11-18T03:46:21;32.30;;;18.83;;
47155;SDS011;32908;52.344;16.858;2022-11-18T03:48:52;35.23;;;19.80;;
47155;SDS011;32908;52.344;16.858;2022-11-18T03:51:22;32.77;;;18.73;;
47155;SDS011;32908;52.344;16.858;2022-11-18T03:53:55;34.83;;;18.90;;
47155;SDS011;32908;52.344;16.858;2022-11-18T03:56:26;38.07;;;19.80;;
47155;SDS011;32908;52.344;16.858;2022-11-18T03:58:59;36.60;;;18.43;;
47155;SDS011;32908;52.344;16.858;2022-11-18T04:01:30;36.07;;;19.63;;
47155;SDS011;32908;52.344;16.858;2022-11-18T04:04:01;37.65;;;18.95;;
47155;SDS011;32908;52.344;16.858;2022-11-18T04:06:31;35.43;;;18.00;;
47155;SDS011;32908;52.344;16.858;2022-11-18T04:09:08;34.55;;;18.10;;
47155;SDS011;32908;52.344;16.858;2022-11-18T04:11:41;39.27;;;18.70;;
47155;SDS011;32908;52.344;16.858;2022-11-18T04:14:29;35.23;;;18.70;;
47155;SDS011;32908;52.344;16.858;2022-11-18T04:16:59;30.80;;;18.13;;
47155;SDS011;32908;52.344;16.858;2022-11-18T04:19:28;30.43;;;16.90;;
47155;SDS011;32908;52.344;16.858;2022-11-18T04:21:57;32.40;;;18.25;;
47155;SDS011;32908;52.344;16.858;2022-11-18T04:24:25;31.23;;;18.43;;
47155;SDS011;32908;52.344;16.858;2022-11-18T04:26:53;30.33;;;18.03;;
47155;SDS011;32908;52.344;16.858;2022-11-18T04:29:22;28.33;;;17.57;;
47155;SDS011;32908;52.344;16.858;2022-11-18T04:31:51;30.57;;;17.53;;
47155;SDS011;32908;52.344;16.858;2022-11-18T04:34:19;31.00;;;17.83;;
47155;SDS011;32908;52.344;16.858;2022-11-18T04:36:48;30.50;;;17.43;;
47155;SDS011;32908;52.344;16.858;2022-11-18T04:39:17;25.40;;;17.10;;
47155;SDS011;32908;52.344;16.858;2022-11-18T04:41:46;30.43;;;17.27;;
47155;SDS011;32908;52.344;16.858;2022-11-18T04:44:24;28.37;;;16.23;;
47155;SDS011;32908;52.344;16.858;2022-11-18T04:46:54;26.70;;;16.00;;
47155;SDS011;32908;52.344;16.858;2022-11-18T04:49:23;28.10;;;17.65;;
47155;SDS011;32908;52.344;16.858;2022-11-18T04:51:53;27.90;;;16.57;;
47155;SDS011;32908;52.344;16.858;2022-11-18T04:54:22;30.83;;;17.80;;
47155;SDS011;32908;52.344;16.858;2022-11-18T04:56:51;27.67;;;18.07;;
47155;SDS011;32908;52.344;16.858;2022-11-18T04:59:20;30.67;;;17.53;;
47155;SDS011;32908;52.344;16.858;2022-11-18T05:01:50;30.83;;;17.30;;
47155;SDS011;32908;52.344;16.858;2022-11-18T05:04:19;29.40;;;17.73;;
47155;SDS011;32908;52.344;16.858;2022-11-18T05:06:50;31.10;;;17.63;;
47155;SDS011;32908;52.344;16.858;2022-11-18T05:09:19;33.25;;;18.70;;
47155;SDS011;32908;52.344;16.858;2022-11-18T05:11:50;31.10;;;18.40;;
47155;SDS011;32908;52.344;16.858;2022-11-18T05:14:36;23.97;;;14.70;;
47155;SDS011;32908;52.344;16.858;2022-11-18T05:17:05;31.25;;;18.15;;
47155;SDS011;32908;52.344;16.858;2022-11-18T05:19:36;26.80;;;16.57;;
47155;SDS011;32908;52.344;16.858;2022-11-18T05:22:05;32.07;;;17.93;;
47155;SDS011;32908;52.344;16.858;2022-11-18T05:24:34;31.67;;;18.13;;
47155;SDS011;32908;52.344;16.858;2022-11-18T05:27:03;23.10;;;15.95;;
47155;SDS011;32908;52.344;16.858;2022-11-18T05:29:33;32.97;;;17.70;;
47155;SDS011;32908;52.344;16.858;2022-11-18T05:32:01;30.13;;;17.43;;
47155;SDS011;32908;52.344;16.858;2022-11-18T05:34:30;29.47;;;16.80;;
47155;SDS011;32908;52.344;16.858;2022-11-18T05:36:59;28.20;;;16.40;;
47155;SDS011;32908;52.344;16.858;2022-11-18T05:39:27;26.73;;;16.50;;
47155;SDS011;32908;52.344;16.858;2022-11-18T05:41:56;26.90;;;15.80;;
47155;SDS011;32908;52.344;16.858;2022-11-18T05:44:43;26.03;;;16.07;;
47155;SDS011;32908;52.344;16.858;2022-11-18T05:47:11;26.33;;;16.57;;
47155;SDS011;32908;52.344;16.858;2022-11-18T05:49:40;29.53;;;16.47;;
47155;SDS011;32908;52.344;16.858;2022-11-18T05:52:08;24.70;;;15.20;;
47155;SDS011;32908;52.344;16.858;2022-11-18T05:54:38;27.43;;;15.10;;
47155;SDS011;32908;52.344;16.858;2022-11-18T05:57:06;24.20;;;15.13;;
47155;SDS011;32908;52.344;16.858;2022-11-18T05:59:34;23.75;;;15.40;;
47155;SDS011;32908;52.344;16.858;2022-11-18T06:02:03;22.80;;;15.00;;
47155;SDS011;32908;52.344;16.858;2022-11-18T06:04:35;22.57;;;14.20;;
47155;SDS011;32908;52.344;16.858;2022-11-18T06:07:08;24.25;;;15.05;;
47155;SDS011;32908;52.344;16.858;2022-11-18T06:09:41;24.47;;;14.97;;
47155;SDS011;32908;52.344;16.858;2022-11-18T06:12:12;23.30;;;14.73;;
47155;SDS011;32908;52.344;16.858;2022-11-18T06:14:43;25.43;;;16.20;;
47155;SDS011;32908;52.344;16.858;2022-11-18T06:17:15;27.17;;;16.57;;
47155;SDS011;32908;52.344;16.858;2022-11-18T06:19:46;30.13;;;15.97;;
47155;SDS011;32908;52.344;16.858;2022-11-18T06:22:15;31.63;;;17.93;;
47155;SDS011;32908;52.344;16.858;2022-11-18T06:24:43;28.17;;;16.87;;
47155;SDS011;32908;52.344;16.858;2022-11-18T06:27:12;30.07;;;17.50;;
47155;SDS011;32908;52.344;16.858;2022-11-18T06:29:41;28.17;;;17.93;;
47155;SDS011;32908;52.344;16.858;2022-11-18T06:32:09;29.10;;;18.00;;
47155;SDS011;32908;52.344;16.858;2022-11-18T06:34:37;28.07;;;18.50;;
47155;SDS011;32908;52.344;16.858;2022-11-18T06:37:11;28.40;;;17.77;;
47155;SDS011;32908;52.344;16.858;2022-11-18T06:39:40;28.13;;;17.70;;
47155;SDS011;32908;52.344;16.858;2022-11-18T06:42:09;29.03;;;19.00;;
47155;SDS011;32908;52.344;16.858;2022-11-18T06:44:37;31.83;;;19.43;;
47155;SDS011;32908;52.344;16.858;2022-11-18T06:47:05;31.43;;;18.53;;
47155;SDS011;32908;52.344;16.858;2022-11-18T06:49:34;30.93;;;19.37;;
47155;SDS011;32908;52.344;16.858;2022-11-18T06:52:02;33.63;;;20.90;;
47155;SDS011;32908;52.344;16.858;2022-11-18T06:54:31;31.97;;;20.00;;
47155;SDS011;32908;52.344;16.858;2022-11-18T06:57:00;33.30;;;21.10;;
47155;SDS011;32908;52.344;16.858;2022-11-18T06:59:30;35.40;;;19.30;;
47155;SDS011;32908;52.344;16.858;2022-11-18T07:01:58;31.77;;;18.87;;
47155;SDS011;32908;52.344;16.858;2022-11-18T07:04:26;32.77;;;20.43;;
47155;SDS011;32908;52.344;16.858;2022-11-18T07:06:55;33.70;;;20.27;;
47155;SDS011;32908;52.344;16.858;2022-11-18T07:09:23;29.73;;;19.47;;
47155;SDS011;32908;52.344;16.858;2022-11-18T07:11:51;29.97;;;18.90;;
47155;SDS011;32908;52.344;16.858;2022-11-18T07:14:19;34.77;;;20.47;;
47155;SDS011;32908;52.344;16.858;2022-11-18T07:16:48;26.87;;;17.87;;
47155;SDS011;32908;52.344;16.858;2022-11-18T07:19:18;27.70;;;17.47;;
47155;SDS011;32908;52.344;16.858;2022-11-18T07:21:47;24.40;;;15.43;;
47155;SDS011;32908;52.344;16.858;2022-11-18T07:24:15;28.37;;;17.40;;
47155;SDS011;32908;52.344;16.858;2022-11-18T07:26:43;27.47;;;15.80;;
47155;SDS011;32908;52.344;16.858;2022-11-18T07:29:12;22.87;;;15.03;;
47155;SDS011;32908;52.344;16.858;2022-11-18T07:31:40;25.70;;;15.57;;
47155;SDS011;32908;52.344;16.858;2022-11-18T07:34:09;21.10;;;14.30;;
47155;SDS011;32908;52.344;16.858;2022-11-18T07:36:38;26.60;;;15.60;;
47155;SDS011;32908;52.344;16.858;2022-11-18T07:39:06;29.77;;;16.73;;
47155;SDS011;32908;52.344;16.858;2022-11-18T07:41:34;29.40;;;16.43;;
47155;SDS011;32908;52.344;16.858;2022-11-18T07:44:03;28.47;;;15.60;;
47155;SDS011;32908;52.344;16.858;2022-11-18T07:46:33;27.50;;;15.83;;
47155;SDS011;32908;52.344;16.858;2022-11-18T07:49:03;27.00;;;15.90;;
47155;SDS011;32908;52.344;16.858;2022-11-18T07:51:34;28.00;;;16.50;;
47155;SDS011;32908;52.344;16.858;2022-11-18T07:54:05;25.80;;;16.00;;
47155;SDS011;32908;52.344;16.858;2022-11-18T07:56:34;28.25;;;16.70;;
47155;SDS011;32908;52.344;16.858;2022-11-18T07:59:03;30.87;;;16.10;;
47155;SDS011;32908;52.344;16.858;2022-11-18T08:01:31;25.03;;;14.90;;
47155;SDS011;32908;52.344;16.858;2022-11-18T08:04:04;25.15;;;14.70;;
47155;SDS011;32908;52.344;16.858;2022-11-18T08:06:34;30.90;;;17.17;;
47155;SDS011;32908;52.344;16.858;2022-11-18T08:09:03;29.43;;;16.37;;
47155;SDS011;32908;52.344;16.858;2022-11-18T08:11:32;28.83;;;16.67;;
47155;SDS011;32908;52.344;16.858;2022-11-18T08:14:00;27.23;;;16.13;;
47155;SDS011;32908;52.344;16.858;2022-11-18T08:16:32;26.07;;;14.93;;
47155;SDS011;32908;52.344;16.858;2022-11-18T08:19:00;23.83;;;14.80;;
47155;SDS011;32908;52.344;16.858;2022-11-18T08:21:29;24.33;;;14.73;;
47155;SDS011;32908;52.344;16.858;2022-11-18T08:23:58;22.90;;;13.97;;
47155;SDS011;32908;52.344;16.858;2022-11-18T08:26:26;21.93;;;13.97;;
47155;SDS011;32908;52.344;16.858;2022-11-18T08:28:55;23.47;;;13.80;;
47155;SDS011;32908;52.344;16.858;2022-11-18T08:31:24;20.50;;;13.00;;
47155;SDS011;32908;52.344;16.858;2022-11-18T08:33:54;19.33;;;12.37;;
47155;SDS011;32908;52.344;16.858;2022-11-18T08:36:23;16.30;;;10.63;;
47155;SDS011;32908;52.344;16.858;2022-11-18T08:38:54;13.63;;;9.07;;
47155;SDS011;32908;52.344;16.858;2022-11-18T08:41:26;13.27;;;9.60;;
47155;SDS011;32908;52.344;16.858;2022-11-18T08:43:58;13.87;;;8.97;;
47155;SDS011;32908;52.344;16.858;2022-11-18T08:46:26;11.47;;;8.27;;
47155;SDS011;32908;52.344;16.858;2022-11-18T08:48:55;15.65;;;7.85;;
47155;SDS011;32908;52.344;16.858;2022-11-18T08:51:24;10.90;;;7.67;;
47155;SDS011;32908;52.344;16.858;2022-11-18T08:53:52;13.80;;;8.40;;
47155;SDS011;32908;52.344;16.858;2022-11-18T08:56:21;11.50;;;7.20;;
47155;SDS011;32908;52.344;16.858;2022-11-18T08:58:50;11.70;;;6.43;;
47155;SDS011;32908;52.344;16.858;2022-11-18T09:01:19;12.30;;;7.60;;
47155;SDS011;32908;52.344;16.858;2022-11-18T09:03:48;9.70;;;6.57;;
47155;SDS011;32908;52.344;16.858;2022-11-18T09:06:17;8.87;;;5.83;;
47155;SDS011;32908;52.344;16.858;2022-11-18T09:08:48;8.83;;;5.97;;
47155;SDS011;32908;52.344;16.858;2022-11-18T09:11:17;10.20;;;5.30;;
47155;SDS011;32908;52.344;16.858;2022-11-18T09:13:47;9.27;;;5.60;;
47155;SDS011;32908;52.344;16.858;2022-11-18T09:16:19;10.07;;;6.00;;
47155;SDS011;32908;52.344;16.858;2022-11-18T09:18:54;8.10;;;5.47;;
47155;SDS011;32908;52.344;16.858;2022-11-18T09:21:24;9.20;;;4.93;;
47155;SDS011;32908;52.344;16.858;2022-11-18T09:23:53;7.97;;;4.87;;
47155;SDS011;32908;52.344;16.858;2022-11-18T09:26:21;4.80;;;4.07;;
47155;SDS011;32908;52.344;16.858;2022-11-18T09:28:52;6.70;;;4.63;;
47155;SDS011;32908;52.344;16.858;2022-11-18T09:31:20;7.33;;;4.77;;
47155;SDS011;32908;52.344;16.858;2022-11-18T09:33:50;7.33;;;4.80;;
47155;SDS011;32908;52.344;16.858;2022-11-18T09:36:19;7.27;;;4.80;;
47155;SDS011;32908;52.344;16.858;2022-11-18T09:38:49;6.83;;;4.40;;
47155;SDS011;32908;52.344;16.858;2022-11-18T09:41:21;7.35;;;5.10;;
47155;SDS011;32908;52.344;16.858;2022-11-18T09:44:07;8.30;;;4.83;;
47155;SDS011;32908;52.344;16.858;2022-11-18T09:46:41;7.33;;;4.70;;
47155;SDS011;32908;52.344;16.858;2022-11-18T09:49:19;7.27;;;4.37;;
47155;SDS011;32908;52.344;16.858;2022-11-18T09:51:51;12.15;;;5.55;;
47155;SDS011;32908;52.344;16.858;2022-11-18T09:54:20;7.70;;;4.83;;
47155;SDS011;32908;52.344;16.858;2022-11-18T09:56:50;6.90;;;4.25;;
47155;SDS011;32908;52.344;16.858;2022-11-18T09:59:21;5.67;;;3.90;;
47155;SDS011;32908;52.344;16.858;2022-11-18T10:01:51;5.50;;;4.07;;
47155;SDS011;32908;52.344;16.858;2022-11-18T10:04:20;7.13;;;4.23;;
47155;SDS011;32908;52.344;16.858;2022-11-18T10:06:50;5.57;;;4.13;;
47155;SDS011;32908;52.344;16.858;2022-11-18T10:09:24;7.67;;;4.33;;
47155;SDS011;32908;52.344;16.858;2022-11-18T10:14:53;7.43;;;4.63;;
47155;SDS011;32908;52.344;16.858;2022-11-18T10:17:45;7.53;;;4.93;;
47155;SDS011;32908;52.344;16.858;2022-11-18T10:20:21;7.93;;;4.80;;
47155;SDS011;32908;52.344;16.858;2022-11-18T10:22:58;7.10;;;4.33;;
47155;SDS011;32908;52.344;16.858;2022-11-18T10:25:32;7.57;;;4.70;;
47155;SDS011;32908;52.344;16.858;2022-11-18T10:28:05;7.30;;;4.60;;
47155;SDS011;32908;52.344;16.858;2022-11-18T10:31:01;7.33;;;4.63;;
47155;SDS011;32908;52.344;16.858;2022-11-18T10:33:30;8.20;;;4.57;;
47155;SDS011;32908;52.344;16.858;2022-11-18T10:36:09;7.43;;;4.50;;
47155;SDS011;32908;52.344;16.858;2022-11-18T10:38:45;6.97;;;4.47;;
47155;SDS011;32908;52.344;16.858;2022-11-18T10:41:14;7.10;;;4.27;;
47155;SDS011;32908;52.344;16.858;2022-11-18T10:43:45;8.90;;;4.60;;
47155;SDS011;32908;52.344;16.858;2022-11-18T10:46:16;9.60;;;4.83;;
47155;SDS011;32908;52.344;16.858;2022-11-18T10:49:11;6.87;;;4.70;;
47155;SDS011;32908;52.344;16.858;2022-11-18T10:51:43;7.63;;;4.60;;
47155;SDS011;32908;52.344;16.858;2022-11-18T10:54:17;9.77;;;5.37;;
47155;SDS011;32908;52.344;16.858;2022-11-18T10:56:48;10.50;;;5.53;;
47155;SDS011;32908;52.344;16.858;2022-11-18T10:59:20;7.80;;;4.67;;
47155;SDS011;32908;52.344;16.858;2022-11-18T11:01:59;9.43;;;5.80;;
47155;SDS011;32908;52.344;16.858;2022-11-18T11:04:29;12.10;;;5.60;;
47155;SDS011;32908;52.344;16.858;2022-11-18T11:06:58;10.60;;;6.47;;
47155;SDS011;32908;52.344;16.858;2022-11-18T11:09:39;13.10;;;6.10;;
47155;SDS011;32908;52.344;16.858;2022-11-18T11:12:11;10.57;;;5.50;;
47155;SDS011;32908;52.344;16.858;2022-11-18T11:14:43;11.67;;;5.97;;
47155;SDS011;32908;52.344;16.858;2022-11-18T11:17:17;13.07;;;6.67;;
47155;SDS011;32908;52.344;16.858;2022-11-18T11:19:50;13.03;;;7.33;;
47155;SDS011;32908;52.344;16.858;2022-11-18T11:22:21;12.83;;;7.37;;
47155;SDS011;32908;52.344;16.858;2022-11-18T11:24:50;14.33;;;7.93;;
47155;SDS011;32908;52.344;16.858;2022-11-18T11:27:22;14.40;;;7.47;;
47155;SDS011;32908;52.344;16.858;2022-11-18T11:30:09;12.68;;;7.60;;
47155;SDS011;32908;52.344;16.858;2022-11-18T11:32:48;11.43;;;6.63;;
47155;SDS011;32908;52.344;16.858;2022-11-18T11:35:27;13.23;;;7.03;;
47155;SDS011;32908;52.344;16.858;2022-11-18T11:37:59;11.20;;;6.57;;
47155;SDS011;32908;52.344;16.858;2022-11-18T11:40:31;11.10;;;6.97;;
47155;SDS011;32908;52.344;16.858;2022-11-18T11:43:05;12.95;;;6.65;;
47155;SDS011;32908;52.344;16.858;2022-11-18T11:45:44;13.17;;;6.30;;
47155;SDS011;32908;52.344;16.858;2022-11-18T11:48:21;9.60;;;6.33;;
47155;SDS011;32908;52.344;16.858;2022-11-18T11:53:43;11.53;;;6.30;;
47155;SDS011;32908;52.344;16.858;2022-11-18T11:56:17;11.03;;;6.33;;
47155;SDS011;32908;52.344;16.858;2022-11-18T11:59:07;12.07;;;6.50;;
47155;SDS011;32908;52.344;16.858;2022-11-18T12:01:43;12.10;;;6.47;;
47155;SDS011;32908;52.344;16.858;2022-11-18T12:04:22;12.67;;;7.27;;
47155;SDS011;32908;52.344;16.858;2022-11-18T12:06:58;11.00;;;6.65;;
47155;SDS011;32908;52.344;16.858;2022-11-18T12:09:30;12.60;;;7.50;;
47155;SDS011;32908;52.344;16.858;2022-11-18T12:12:15;11.90;;;6.53;;
47155;SDS011;32908;52.344;16.858;2022-11-18T12:15:05;11.17;;;6.63;;
47155;SDS011;32908;52.344;16.858;2022-11-18T12:17:44;12.60;;;6.63;;
47155;SDS011;32908;52.344;16.858;2022-11-18T12:23:11;12.90;;;8.43;;
47155;SDS011;32908;52.344;16.858;2022-11-18T12:25:49;16.13;;;8.80;;
47155;SDS011;32908;52.344;16.858;2022-11-18T12:28:26;19.40;;;9.17;;
47155;SDS011;32908;52.344;16.858;2022-11-18T12:33:59;19.07;;;9.97;;
47155;SDS011;32908;52.344;16.858;2022-11-18T12:36:30;19.03;;;9.70;;
47155;SDS011;32908;52.344;16.858;2022-11-18T12:39:44;18.83;;;9.30;;
47155;SDS011;32908;52.344;16.858;2022-11-18T12:42:31;16.17;;;8.87;;
47155;SDS011;32908;52.344;16.858;2022-11-18T12:48:29;16.30;;;8.25;;
47155;SDS011;32908;52.344;16.858;2022-11-18T12:51:01;14.80;;;7.80;;
47155;SDS011;32908;52.344;16.858;2022-11-18T12:53:35;13.63;;;7.87;;
47155;SDS011;32908;52.344;16.858;2022-11-18T12:56:17;13.63;;;6.50;;
47155;SDS011;32908;52.344;16.858;2022-11-18T12:58:49;12.13;;;6.90;;
47155;SDS011;32908;52.344;16.858;2022-11-18T13:01:19;9.67;;;6.30;;
47155;SDS011;32908;52.344;16.858;2022-11-18T13:03:49;12.53;;;6.57;;
47155;SDS011;32908;52.344;16.858;2022-11-18T13:06:20;12.40;;;7.60;;
47155;SDS011;32908;52.344;16.858;2022-11-18T13:08:52;11.10;;;6.30;;
47155;SDS011;32908;52.344;16.858;2022-11-18T13:11:21;13.07;;;6.73;;
47155;SDS011;32908;52.344;16.858;2022-11-18T13:14:14;10.53;;;6.50;;
47155;SDS011;32908;52.344;16.858;2022-11-18T13:17:04;9.60;;;6.10;;
47155;SDS011;32908;52.344;16.858;2022-11-18T13:20:18;10.80;;;6.23;;
47155;SDS011;32908;52.344;16.858;2022-11-18T13:22:51;11.63;;;6.83;;
47155;SDS011;32908;52.344;16.858;2022-11-18T13:25:39;10.23;;;6.17;;
47155;SDS011;32908;52.344;16.858;2022-11-18T13:28:15;10.27;;;6.67;;
47155;SDS011;32908;52.344;16.858;2022-11-18T13:30:49;13.57;;;7.07;;
47155;SDS011;32908;52.344;16.858;2022-11-18T13:33:20;12.33;;;6.93;;
47155;SDS011;32908;52.344;16.858;2022-11-18T13:35:49;12.07;;;7.27;;
47155;SDS011;32908;52.344;16.858;2022-11-18T13:38:19;13.27;;;7.53;;
47155;SDS011;32908;52.344;16.858;2022-11-18T13:40:50;11.63;;;7.07;;
47155;SDS011;32908;52.344;16.858;2022-11-18T13:43:31;12.00;;;7.15;;
47155;SDS011;32908;52.344;16.858;2022-11-18T13:46:02;11.83;;;7.30;;
47155;SDS011;32908;52.344;16.858;2022-11-18T13:48:35;13.03;;;6.93;;
47155;SDS011;32908;52.344;16.858;2022-11-18T13:51:06;13.53;;;6.87;;
47155;SDS011;32908;52.344;16.858;2022-11-18T13:53:34;10.17;;;6.60;;
47155;SDS011;32908;52.344;16.858;2022-11-18T13:56:04;10.33;;;6.43;;
47155;SDS011;32908;52.344;16.858;2022-11-18T13:58:39;14.07;;;7.00;;
47155;SDS011;32908;52.344;16.858;2022-11-18T14:01:12;8.83;;;5.60;;
47155;SDS011;32908;52.344;16.858;2022-11-18T14:03:47;10.30;;;6.37;;
47155;SDS011;32908;52.344;16.858;2022-11-18T14:06:26;9.77;;;6.30;;
47155;SDS011;32908;52.344;16.858;2022-11-18T14:09:06;13.03;;;7.30;;
47155;SDS011;32908;52.344;16.858;2022-11-18T14:11:43;10.97;;;6.53;;
47155;SDS011;32908;52.344;16.858;2022-11-18T14:14:25;11.37;;;7.43;;
47155;SDS011;32908;52.344;16.858;2022-11-18T14:16:57;13.10;;;7.73;;
47155;SDS011;32908;52.344;16.858;2022-11-18T14:19:31;10.40;;;6.80;;
47155;SDS011;32908;52.344;16.858;2022-11-18T14:22:04;11.43;;;6.77;;
47155;SDS011;32908;52.344;16.858;2022-11-18T14:24:37;10.53;;;6.50;;
47155;SDS011;32908;52.344;16.858;2022-11-18T14:33:09;12.23;;;6.83;;
47155;SDS011;32908;52.344;16.858;2022-11-18T14:35:38;8.87;;;6.27;;
47155;SDS011;32908;52.344;16.858;2022-11-18T14:38:14;9.50;;;6.07;;
47155;SDS011;32908;52.344;16.858;2022-11-18T14:40:44;9.03;;;5.63;;
47155;SDS011;32908;52.344;16.858;2022-11-18T14:43:12;9.77;;;6.53;;
47155;SDS011;32908;52.344;16.858;2022-11-18T14:45:40;11.73;;;6.70;;
47155;SDS011;32908;52.344;16.858;2022-11-18T14:48:08;10.13;;;6.50;;
47155;SDS011;32908;52.344;16.858;2022-11-18T14:50:37;8.90;;;6.00;;
47155;SDS011;32908;52.344;16.858;2022-11-18T14:53:05;13.70;;;6.97;;
47155;SDS011;32908;52.344;16.858;2022-11-18T14:55:35;9.90;;;6.83;;
47155;SDS011;32908;52.344;16.858;2022-11-18T14:58:03;11.40;;;7.50;;
47155;SDS011;32908;52.344;16.858;2022-11-18T15:00:30;11.73;;;7.30;;
47155;SDS011;32908;52.344;16.858;2022-11-18T15:02:59;12.17;;;7.40;;
47155;SDS011;32908;52.344;16.858;2022-11-18T15:05:27;14.70;;;8.00;;
47155;SDS011;32908;52.344;16.858;2022-11-18T15:07:55;14.35;;;7.30;;